Time;durP1;ratioP1;P1;durP2;ratioP2;P2;SDS_P1;SDS_P2;PMS_P1;PMS_P2;Temp;Humidity;BMP_temperature;BMP_pressure;BME280_temperature;BME280_humidity;BME280_pressure;Samples;Min_cycle;Max_cycle;Signal;HPM_P1;HPM_P2
2021/05/11 00:01:47;;;;;;;3.30;1.42;;;14.50;99.90;;;;;;5065097;28;20029;-55
2021/05/11 00:04:13;;;;;;;4.05;1.65;;;14.40;99.90;;;;;;5063858;28;20017;-52
2021/05/11 00:06:39;;;;;;;2.92;1.63;;;14.40;99.90;;;;;;5058908;28;20037;-55
2021/05/11 00:09:06;;;;;;;2.80;2.17;;;14.30;99.90;;;;;;5063435;28;20365;-54
2021/05/11 00:11:32;;;;;;;3.13;1.88;;;14.30;99.90;;;;;;5065110;28;20969;-53
2021/05/11 00:13:58;;;;;;;5.93;2.63;;;14.30;99.90;;;;;;5065277;28;20108;-53
2021/05/11 00:16:24;;;;;;;7.30;3.85;;;14.30;99.90;;;;;;5062098;28;20115;-53
2021/05/11 00:18:49;;;;;;;4.20;2.63;;;14.30;99.90;;;;;;5067566;28;20104;-53
2021/05/11 00:21:15;;;;;;;4.18;3.30;;;14.30;99.90;;;;;;5062542;28;20033;-53
2021/05/11 00:23:40;;;;;;;4.20;3.38;;;14.30;99.90;;;;;;5057826;28;20166;-56
2021/05/11 00:26:06;;;;;;;4.05;3.05;;;14.40;99.90;;;;;;5058404;28;20332;-53
2021/05/11 00:28:31;;;;;;;3.97;3.08;;;14.40;99.90;;;;;;5059450;28;20064;-54
2021/05/11 00:30:57;;;;;;;5.72;3.42;;;14.40;99.90;;;;;;5060115;28;20033;-54
2021/05/11 00:33:23;;;;;;;5.53;3.22;;;14.40;99.90;;;;;;5059085;28;20032;-55
2021/05/11 00:35:48;;;;;;;6.22;3.90;;;14.40;99.90;;;;;;5063468;28;20246;-57
2021/05/11 00:38:14;;;;;;;5.70;4.22;;;14.40;99.90;;;;;;5063162;28;20045;-58
2021/05/11 00:40:40;;;;;;;5.15;3.63;;;14.40;99.90;;;;;;5058943;28;20077;-53
2021/05/11 00:43:05;;;;;;;7.82;4.18;;;14.40;99.90;;;;;;5068340;28;20100;-53
2021/05/11 00:45:31;;;;;;;10.40;4.68;;;14.50;99.90;;;;;;5062968;28;20081;-53
2021/05/11 00:47:56;;;;;;;6.00;4.50;;;14.50;99.90;;;;;;5066466;28;20497;-55
2021/05/11 00:50:22;;;;;;;8.70;5.07;;;14.50;99.90;;;;;;5053517;28;20043;-54
2021/05/11 00:52:48;;;;;;;5.38;4.80;;;14.50;99.90;;;;;;5065960;28;20028;-53
2021/05/11 00:55:14;;;;;;;7.63;4.43;;;14.50;99.90;;;;;;5056104;28;20044;-53
2021/05/11 00:57:40;;;;;;;7.63;5.43;;;14.50;99.90;;;;;;5063807;28;20106;-55
2021/05/11 01:00:09;;;;;;;7.40;5.13;;;14.50;99.90;;;;;;5056692;28;20028;-54
2021/05/11 01:02:35;;;;;;;10.85;5.75;;;14.50;99.90;;;;;;5059205;28;20055;-54
2021/05/11 01:05:01;;;;;;;8.25;5.72;;;14.40;99.90;;;;;;5059269;28;20702;-53
2021/05/11 01:07:27;;;;;;;8.35;5.65;;;14.40;99.90;;;;;;5058636;28;20107;-57
2021/05/11 01:09:53;;;;;;;12.02;7.32;;;14.30;99.90;;;;;;5062665;28;20490;-53
2021/05/11 01:12:18;;;;;;;10.75;7.30;;;14.30;99.90;;;;;;5062938;28;20051;-54
2021/05/11 01:14:46;;;;;;;8.55;7.63;;;14.30;99.90;;;;;;5060108;28;20041;-57
2021/05/11 01:17:17;;;;;;;9.90;6.88;;;14.30;99.90;;;;;;5058212;28;20029;-53
2021/05/11 01:19:48;;;;;;;11.02;7.18;;;14.30;99.90;;;;;;5060008;28;20041;-55
2021/05/11 01:24:55;;;;;;;10.18;7.82;;;14.20;99.90;;;;;;5059743;28;20020;-57
2021/05/11 01:46:31;;;;;;;14.03;9.87;;;14.30;99.90;;;;;;5063375;28;20043;-54
2021/05/11 01:54:56;;;;;;;17.27;11.05;;;14.20;99.90;;;;;;5063268;28;20032;-53
2021/05/11 02:24:29;;;;;;;20.25;13.63;;;14.10;99.90;;;;;;5061647;28;20120;-56
2021/05/11 02:26:54;;;;;;;19.98;13.90;;;14.10;99.90;;;;;;5058993;28;20527;-56
2021/05/11 02:29:20;;;;;;;19.33;13.05;;;14.10;99.90;;;;;;5061177;28;20469;-50
2021/05/11 02:31:46;;;;;;;24.48;14.70;;;14.00;99.90;;;;;;5059180;28;20402;-56
2021/05/11 02:34:11;;;;;;;29.55;15.43;;;14.10;99.90;;;;;;5066566;28;20103;-58
2021/05/11 02:36:37;;;;;;;22.67;14.68;;;14.10;99.90;;;;;;5059915;28;20123;-54
2021/05/11 02:39:03;;;;;;;23.90;16.33;;;14.00;99.90;;;;;;5060456;28;20131;-53
2021/05/11 02:41:29;;;;;;;24.73;15.80;;;14.00;99.90;;;;;;5069422;28;20035;-55
2021/05/11 02:43:56;;;;;;;18.75;14.10;;;14.00;99.90;;;;;;5064525;28;20033;-55
2021/05/11 02:46:22;;;;;;;23.98;15.70;;;14.10;99.90;;;;;;5063927;28;20013;-54
2021/05/11 02:48:47;;;;;;;22.00;16.48;;;14.10;99.90;;;;;;5067605;28;20036;-57
2021/05/11 02:51:13;;;;;;;23.63;14.70;;;14.00;99.90;;;;;;5055823;28;20036;-53
2021/05/11 02:53:38;;;;;;;19.73;15.00;;;14.00;99.90;;;;;;5063284;28;20411;-56
2021/05/11 02:56:04;;;;;;;22.70;16.10;;;14.00;99.90;;;;;;5063016;28;20487;-55
2021/05/11 02:58:33;;;;;;;22.80;15.48;;;14.00;99.90;;;;;;5065453;28;20055;-55
2021/05/11 03:00:58;;;;;;;25.20;15.52;;;14.00;99.90;;;;;;5067901;28;21627;-56
2021/05/11 03:03:24;;;;;;;25.23;16.02;;;14.00;99.90;;;;;;5063965;28;20028;-53
2021/05/11 03:05:49;;;;;;;18.17;13.95;;;14.00;99.90;;;;;;5058381;28;20063;-52
2021/05/11 03:08:15;;;;;;;23.63;15.32;;;14.10;99.90;;;;;;5057878;28;20158;-53
2021/05/11 03:10:41;;;;;;;24.50;15.35;;;14.10;99.90;;;;;;5055004;28;20474;-56
2021/05/11 03:13:06;;;;;;;21.45;14.52;;;14.00;99.90;;;;;;5063955;28;20035;-53
2021/05/11 03:15:32;;;;;;;23.88;15.32;;;14.00;99.90;;;;;;5058093;28;20420;-54
2021/05/11 03:17:57;;;;;;;21.92;16.33;;;14.00;99.90;;;;;;5062848;28;20020;-53
2021/05/11 03:20:23;;;;;;;21.98;15.63;;;13.90;99.90;;;;;;5059738;28;20115;-51
2021/05/11 03:22:48;;;;;;;25.42;16.52;;;13.90;99.90;;;;;;5059427;28;20106;-53
2021/05/11 03:25:14;;;;;;;25.35;16.40;;;13.90;99.90;;;;;;5061560;28;20071;-53
2021/05/11 03:27:40;;;;;;;23.05;15.18;;;13.90;99.90;;;;;;5064470;28;20506;-51
2021/05/11 03:30:06;;;;;;;20.85;15.50;;;14.00;99.90;;;;;;5059808;28;20090;-51
2021/05/11 03:32:32;;;;;;;25.35;15.43;;;14.00;99.90;;;;;;5064185;28;20084;-53
2021/05/11 03:34:58;;;;;;;20.83;14.98;;;14.00;99.90;;;;;;5060718;28;20425;-53
2021/05/11 03:37:24;;;;;;;30.48;16.23;;;13.90;99.90;;;;;;5057644;28;20047;-54
2021/05/11 03:39:49;;;;;;;23.67;15.20;;;14.00;99.90;;;;;;5063107;28;20541;-53
2021/05/11 03:44:50;;;;;;;19.58;13.73;;;13.90;99.90;;;;;;5059994;28;20368;-51
2021/05/11 03:47:18;;;;;;;22.27;14.23;;;14.00;99.90;;;;;;5058019;28;20082;-51
2021/05/11 03:49:44;;;;;;;20.35;13.82;;;13.90;99.90;;;;;;5057570;28;20039;-52
2021/05/11 03:52:09;;;;;;;21.63;13.88;;;13.90;99.90;;;;;;5056454;28;20028;-51
2021/05/11 03:54:35;;;;;;;24.42;15.13;;;13.90;99.90;;;;;;5055251;28;20403;-51
2021/05/11 03:57:01;;;;;;;22.25;13.60;;;13.80;99.90;;;;;;5058876;28;20097;-54
2021/05/11 03:59:27;;;;;;;22.02;15.32;;;13.80;99.90;;;;;;5066705;28;20494;-53
2021/05/11 04:01:52;;;;;;;22.17;13.98;;;13.80;99.90;;;;;;5057710;28;20039;-55
2021/05/11 04:04:19;;;;;;;19.08;12.38;;;13.80;99.90;;;;;;5054750;28;20032;-54
2021/05/11 04:06:45;;;;;;;16.40;11.75;;;13.80;99.90;;;;;;5059019;28;20502;-54
2021/05/11 04:09:19;;;;;;;16.15;11.38;;;13.90;99.90;;;;;;5061678;28;20044;-51
2021/05/11 04:16:42;;;;;;;18.20;12.05;;;13.90;99.90;;;;;;5065056;28;20037;-52
2021/05/11 04:19:11;;;;;;;16.45;12.38;;;13.80;99.90;;;;;;5065866;28;20039;-53
2021/05/11 04:21:37;;;;;;;20.02;13.13;;;13.80;99.90;;;;;;5057821;28;20052;-50
2021/05/11 04:24:04;;;;;;;21.48;14.45;;;13.80;99.90;;;;;;5064955;28;20040;-51
2021/05/11 04:26:30;;;;;;;23.30;14.07;;;13.80;99.90;;;;;;5066534;28;20028;-52
2021/05/11 04:28:55;;;;;;;24.90;14.27;;;13.80;99.90;;;;;;5063567;28;20602;-51
2021/05/11 04:31:21;;;;;;;22.65;14.73;;;13.70;99.90;;;;;;5063050;28;20135;-53
2021/05/11 04:33:47;;;;;;;28.65;15.60;;;13.70;99.90;;;;;;5065024;28;20035;-51
2021/05/11 04:36:14;;;;;;;25.33;16.13;;;13.70;99.90;;;;;;5059367;28;20039;-51
2021/05/11 04:38:40;;;;;;;31.15;17.83;;;13.70;99.90;;;;;;5059967;28;20048;-52
2021/05/11 04:41:06;;;;;;;31.80;17.83;;;13.80;99.90;;;;;;5059396;28;20027;-55
2021/05/11 04:43:35;;;;;;;28.05;17.52;;;13.80;99.90;;;;;;5063297;28;20024;-52
2021/05/11 04:48:34;;;;;;;26.02;17.50;;;13.80;99.90;;;;;;5058323;28;20021;-56
2021/05/11 04:51:00;;;;;;;24.15;16.35;;;13.80;99.90;;;;;;5064476;28;20454;-53
2021/05/11 04:53:26;;;;;;;28.30;17.63;;;13.80;99.90;;;;;;5058842;28;20074;-51
2021/05/11 04:55:52;;;;;;;23.40;16.40;;;13.90;99.90;;;;;;5063579;28;20155;-55
2021/05/11 04:58:17;;;;;;;23.27;16.58;;;14.00;99.90;;;;;;5058499;28;20052;-55
2021/05/11 05:00:43;;;;;;;22.67;15.90;;;14.00;99.90;;;;;;5061098;28;20491;-51
2021/05/11 05:03:14;;;;;;;21.83;15.63;;;14.00;99.90;;;;;;5052725;28;20025;-54
2021/05/11 05:05:40;;;;;;;23.65;15.95;;;14.00;99.90;;;;;;5049944;28;20033;-51
2021/05/11 05:08:05;;;;;;;23.02;15.95;;;14.00;99.90;;;;;;5056751;28;20028;-51
2021/05/11 05:10:31;;;;;;;21.95;13.50;;;14.10;99.90;;;;;;5063287;28;20432;-53
2021/05/11 05:12:56;;;;;;;21.30;13.82;;;14.00;99.90;;;;;;5059635;28;20389;-53
2021/05/11 05:15:22;;;;;;;18.13;12.18;;;13.90;99.90;;;;;;5056056;28;20060;-53
2021/05/11 05:17:47;;;;;;;16.67;9.23;;;13.90;99.90;;;;;;5059117;28;20036;-53
2021/05/11 05:20:13;;;;;;;14.68;9.68;;;14.00;99.90;;;;;;5058288;28;20033;-52
2021/05/11 05:22:39;;;;;;;11.98;8.38;;;14.10;99.90;;;;;;5065066;28;20032;-52
2021/05/11 05:25:13;;;;;;;10.45;6.10;;;14.20;99.90;;;;;;5055467;28;20029;-54
2021/05/11 05:27:44;;;;;;;;;;;14.20;99.90;;;;;;5056576;28;20364;-55
2021/05/11 05:30:11;;;;;;;11.60;5.43;;;14.20;99.90;;;;;;5057142;28;19990;-52
2021/05/11 05:32:36;;;;;;;8.80;5.30;;;14.20;99.90;;;;;;5060889;28;20033;-52
2021/05/11 05:35:02;;;;;;;7.40;3.53;;;14.20;99.90;;;;;;5061813;28;20089;-52
2021/05/11 05:37:28;;;;;;;6.95;3.35;;;14.20;99.90;;;;;;5058086;28;20529;-55
2021/05/11 05:39:57;;;;;;;6.10;3.05;;;14.20;99.90;;;;;;5057789;28;20029;-51
2021/05/11 05:42:23;;;;;;;4.65;2.72;;;14.10;99.90;;;;;;5062413;28;20028;-50
2021/05/11 05:44:49;;;;;;;4.63;2.42;;;14.10;99.90;;;;;;5061581;28;20090;-54
2021/05/11 05:47:14;;;;;;;5.47;2.22;;;14.20;99.90;;;;;;5056229;28;20430;-53
2021/05/11 05:49:44;;;;;;;4.78;2.17;;;14.20;99.90;;;;;;5059942;28;20094;-54
2021/05/11 05:52:16;;;;;;;10.73;3.22;;;14.20;99.90;;;;;;5062494;28;20033;-56
2021/05/11 05:54:43;;;;;;;7.63;2.40;;;14.30;99.90;;;;;;5053652;28;20043;-56
2021/05/11 05:57:08;;;;;;;4.22;2.40;;;14.30;99.90;;;;;;5052988;28;20037;-56
2021/05/11 05:59:39;;;;;;;5.70;2.42;;;14.40;99.90;;;;;;5055380;28;20052;-54
2021/05/11 06:02:05;;;;;;;4.72;2.25;;;14.30;99.90;;;;;;5061794;28;20090;-54
2021/05/11 06:04:30;;;;;;;7.03;2.50;;;14.20;99.90;;;;;;5059746;28;20021;-54
2021/05/11 06:06:56;;;;;;;9.30;2.60;;;14.30;99.90;;;;;;5059607;28;20483;-58
2021/05/11 06:09:22;;;;;;;6.47;2.30;;;14.20;99.90;;;;;;5058557;28;20024;-50
2021/05/11 06:12:03;;;;;;;4.38;2.17;;;14.30;99.90;;;;;;5055067;28;20403;-50
2021/05/11 06:17:04;;;;;;;7.22;2.67;;;14.30;99.90;;;;;;5048500;28;20033;-53
2021/05/11 06:17:17;;;;;;;5.95;3.17;;;14.30;99.90;;;;;;5053934;28;20086;-53
2021/05/11 06:19:48;;;;;;;4.88;2.78;;;14.20;99.90;;;;;;5052833;28;20033;-52
2021/05/11 06:22:15;;;;;;;7.30;3.88;;;14.20;99.90;;;;;;5051895;28;20029;-52
2021/05/11 06:24:42;;;;;;;6.22;2.60;;;14.30;99.90;;;;;;5056614;28;20565;-52
2021/05/11 06:27:09;;;;;;;7.65;2.70;;;14.40;99.90;;;;;;5052184;28;20021;-51
2021/05/11 06:29:38;;;;;;;5.22;2.67;;;14.40;99.90;;;;;;5061168;28;20032;-52
2021/05/11 06:32:08;;;;;;;5.60;2.33;;;14.30;99.90;;;;;;5063009;28;20029;-52
2021/05/11 06:34:34;;;;;;;3.85;2.63;;;14.40;99.90;;;;;;5063041;28;20533;-54
2021/05/11 06:37:00;;;;;;;4.95;2.50;;;14.40;99.90;;;;;;5061091;28;20048;-54
2021/05/11 06:39:26;;;;;;;6.10;3.08;;;14.50;99.90;;;;;;5061320;28;20385;-52
2021/05/11 06:41:54;;;;;;;7.00;2.75;;;14.50;99.90;;;;;;5061870;28;20040;-55
2021/05/11 06:47:25;;;;;;;6.47;3.13;;;14.50;99.90;;;;;;5059621;28;20025;-52
2021/05/11 06:54:58;;;;;;;7.70;3.00;;;14.60;99.90;;;;;;5056692;28;20064;-57
2021/05/11 06:57:25;;;;;;;5.97;3.47;;;14.70;99.90;;;;;;5057258;28;20094;-57
2021/05/11 06:59:51;;;;;;;10.07;3.08;;;14.80;99.90;;;;;;5057022;28;20215;-55
2021/05/11 07:02:16;;;;;;;10.75;3.08;;;14.90;99.90;;;;;;5058138;28;20032;-52
2021/05/11 07:04:43;;;;;;;8.20;3.03;;;15.00;99.90;;;;;;5061265;28;20028;-56
2021/05/11 07:07:11;;;;;;;8.77;3.15;;;15.00;99.90;;;;;;5059997;28;20025;-53
2021/05/11 07:09:54;;;;;;;10.00;3.13;;;15.10;99.90;;;;;;5064361;28;20409;-52
2021/05/11 07:15:05;;;;;;;7.80;2.88;;;15.20;99.90;;;;;;5059424;28;20430;-58
2021/05/11 07:17:30;;;;;;;5.72;2.95;;;15.30;99.90;;;;;;5064256;28;20040;-53
2021/05/11 07:19:56;;;;;;;11.57;2.15;;;15.30;99.90;;;;;;5056169;28;20040;-54
2021/05/11 07:22:22;;;;;;;9.55;3.00;;;15.40;99.90;;;;;;5057340;28;20037;-56
2021/05/11 07:24:51;;;;;;;9.70;2.95;;;15.50;99.90;;;;;;5062744;28;20101;-54
2021/05/11 07:30:15;;;;;;;10.57;2.17;;;15.50;99.90;;;;;;5055266;28;20032;-55
2021/05/11 07:32:39;;;;;;;12.05;2.65;;;15.60;99.90;;;;;;5057708;28;20049;-58
2021/05/11 07:35:06;;;;;;;5.28;2.33;;;15.60;99.90;;;;;;5056611;28;20163;-58
2021/05/11 07:37:31;;;;;;;9.98;2.38;;;15.60;99.90;;;;;;5053939;28;20041;-60
2021/05/11 07:39:57;;;;;;;11.48;2.42;;;15.70;99.90;;;;;;5059580;28;20035;-56
2021/05/11 07:42:23;;;;;;;10.02;2.70;;;15.70;99.90;;;;;;5058194;28;20033;-59
2021/05/11 07:44:51;;;;;;;10.25;2.75;;;15.60;99.90;;;;;;5056088;28;20032;-58
2021/05/11 07:47:32;;;;;;;8.00;2.40;;;15.60;99.90;;;;;;5063292;28;20027;-56
2021/05/11 07:56:41;;;;;;;9.70;3.78;;;15.70;99.90;;;;;;5059018;28;20029;-57
2021/05/11 08:14:28;;;;;;;9.65;4.60;;;15.70;99.90;;;;;;5056931;28;20165;-56
2021/05/11 08:17:01;;;;;;;15.30;5.43;;;15.80;99.90;;;;;;5066173;28;20047;-56
2021/05/11 08:27:45;;;;;;;14.50;6.18;;;15.90;99.90;;;;;;5061127;28;20397;-57
2021/05/11 08:30:11;;;;;;;10.52;5.57;;;15.90;99.90;;;;;;5061577;28;20107;-55
2021/05/11 08:32:37;;;;;;;17.20;6.70;;;15.80;99.90;;;;;;5063913;28;20040;-57
2021/05/11 08:35:04;;;;;;;13.45;6.25;;;15.70;99.90;;;;;;5065075;28;20036;-56
2021/05/11 08:37:29;;;;;;;17.10;5.88;;;15.70;99.90;;;;;;5056264;28;20036;-58
2021/05/11 08:39:55;;;;;;;12.98;5.78;;;15.70;99.90;;;;;;5059876;28;20032;-52
2021/05/11 08:42:20;;;;;;;13.57;6.05;;;15.80;99.90;;;;;;5056015;28;20036;-59
2021/05/11 08:44:46;;;;;;;10.63;3.72;;;15.70;99.90;;;;;;5062732;28;20025;-55
2021/05/11 08:47:12;;;;;;;10.85;3.72;;;15.60;99.90;;;;;;5059050;28;20035;-56
2021/05/11 08:49:39;;;;;;;7.07;3.83;;;15.70;99.90;;;;;;5061764;28;20102;-58
2021/05/11 08:52:13;;;;;;;8.90;3.30;;;15.60;99.90;;;;;;5065255;28;20111;-52
2021/05/11 08:55:06;;;;;;;12.73;3.63;;;15.60;99.90;;;;;;5057599;28;20123;-55
2021/05/11 09:06:10;;;;;;;13.70;5.00;;;15.90;99.90;;;;;;5064147;28;20082;-58
2021/05/11 09:08:55;;;;;;;8.63;5.28;;;16.10;99.90;;;;;;5057301;28;20077;-55
2021/05/11 09:59:03;;;;;;;12.05;9.15;;;17.00;99.90;;;;;;5068388;28;20082;-58
2021/05/11 10:13:50;;;;;;;11.77;6.97;;;17.00;99.90;;;;;;5072738;28;20035;-53
2021/05/11 10:48:26;;;;;;;15.48;8.70;;;17.90;99.90;;;;;;5066744;28;20482;-54
2021/05/11 10:51:00;;;;;;;12.90;7.45;;;17.80;99.90;;;;;;5062453;28;20024;-53
2021/05/11 10:54:05;;;;;;;11.80;7.75;;;17.80;99.90;;;;;;5064632;28;20021;-55
2021/05/11 10:56:36;;;;;;;12.80;7.25;;;18.00;99.90;;;;;;5059307;28;20099;-51
2021/05/11 10:59:16;;;;;;;11.38;8.13;;;18.10;99.90;;;;;;5056159;28;20033;-53
2021/05/11 11:01:46;;;;;;;12.95;7.97;;;18.40;99.90;;;;;;5061110;28;20028;-58
2021/05/11 11:04:19;;;;;;;12.57;8.27;;;18.40;99.90;;;;;;5063095;28;20472;-53
2021/05/11 11:07:00;;;;;;;13.77;8.35;;;18.60;99.90;;;;;;5062533;28;20522;-53
2021/05/11 11:09:30;;;;;;;12.20;7.82;;;18.50;99.90;;;;;;5056057;28;20464;-55
2021/05/11 11:11:57;;;;;;;12.23;7.70;;;18.30;99.90;;;;;;5062112;28;20080;-58
2021/05/11 11:14:23;;;;;;;10.38;7.45;;;18.20;99.90;;;;;;5062195;28;20538;-52
2021/05/11 11:16:59;;;;;;;11.35;7.72;;;17.90;99.90;;;;;;5064456;28;20115;-54
2021/05/11 11:19:25;;;;;;;13.10;7.47;;;17.70;99.90;;;;;;5061352;28;20024;-57
2021/05/11 11:24:25;;;;;;;10.85;7.50;;;17.30;99.90;;;;;;5064593;28;20017;-57
2021/05/11 11:26:53;;;;;;;11.90;7.57;;;17.10;99.90;;;;;;5056455;28;20539;-55
2021/05/11 11:29:20;;;;;;;13.02;8.02;;;17.10;99.90;;;;;;5056780;28;20465;-57
2021/05/11 11:31:47;;;;;;;13.68;7.88;;;17.10;99.90;;;;;;5060026;28;20017;-55
2021/05/11 11:34:23;;;;;;;13.30;7.95;;;17.10;99.90;;;;;;5061105;28;20032;-55
2021/05/11 11:36:56;;;;;;;8.75;7.47;;;16.90;99.90;;;;;;5057914;28;20036;-58
2021/05/11 11:39:33;;;;;;;11.73;8.32;;;16.70;99.90;;;;;;5076289;22;20080;-56
2021/05/11 11:42:01;;;;;;;12.65;7.88;;;16.60;99.90;;;;;;5066807;28;20108;-53
2021/05/11 11:44:34;;;;;;;12.07;8.68;;;16.50;99.90;;;;;;5070372;28;20486;-55
2021/05/11 11:47:06;;;;;;;13.48;9.90;;;16.50;99.90;;;;;;5066077;28;20389;-55
2021/05/11 11:49:36;;;;;;;18.90;10.68;;;16.50;99.90;;;;;;5063427;28;20028;-55
2021/05/11 11:52:08;;;;;;;14.75;10.32;;;16.40;99.90;;;;;;5063126;28;20028;-55
2021/05/11 11:54:48;;;;;;;12.32;9.63;;;16.40;99.90;;;;;;5099204;28;20652;-53
2021/05/11 12:00:06;;;;;;;13.23;9.63;;;16.30;99.90;;;;;;5067653;28;20031;-55
2021/05/11 12:02:31;;;;;;;19.05;10.20;;;16.20;99.90;;;;;;5068727;28;20021;-54
2021/05/11 12:05:11;;;;;;;17.30;11.80;;;16.20;99.90;;;;;;5069464;28;20468;-56
2021/05/11 12:10:22;;;;;;;20.75;13.43;;;16.10;99.90;;;;;;5069038;28;20044;-56
2021/05/11 12:12:47;;;;;;;21.40;14.18;;;16.10;99.90;;;;;;5068155;28;20025;-55
2021/05/11 12:15:19;;;;;;;23.85;15.63;;;16.10;99.90;;;;;;5069773;28;20057;-56
2021/05/11 12:17:46;;;;;;;23.45;15.98;;;16.10;99.90;;;;;;5068628;28;20109;-55
2021/05/11 12:20:26;;;;;;;20.00;14.45;;;16.20;99.90;;;;;;5068972;28;20039;-55
2021/05/11 12:23:14;;;;;;;17.25;12.90;;;16.20;99.90;;;;;;5067951;28;20494;-54
2021/05/11 12:25:41;;;;;;;24.35;15.05;;;16.20;99.90;;;;;;5064145;28;20103;-56
2021/05/11 12:28:07;;;;;;;30.73;15.77;;;16.10;99.90;;;;;;5068209;28;20078;-55
2021/05/11 12:30:42;;;;;;;22.08;17.13;;;16.00;99.90;;;;;;5066266;28;20108;-53
2021/05/11 12:33:15;;;;;;;26.58;17.58;;;16.00;99.90;;;;;;5065079;28;20056;-56
2021/05/11 12:35:42;;;;;;;19.05;13.05;;;16.00;99.90;;;;;;5067772;28;20451;-56
2021/05/11 12:38:20;;;;;;;31.10;14.65;;;16.00;99.90;;;;;;5068670;28;20043;-56
2021/05/11 12:40:59;;;;;;;21.92;13.93;;;16.10;99.90;;;;;;5067739;28;20032;-56
2021/05/11 12:43:48;;;;;;;27.05;15.50;;;16.10;99.90;;;;;;5071097;28;20394;-56
2021/05/11 12:46:31;;;;;;;31.00;16.52;;;16.00;99.90;;;;;;5071081;28;20027;-56
2021/05/11 12:49:17;;;;;;;26.10;16.63;;;16.00;99.90;;;;;;5068640;28;20024;-56
2021/05/11 12:51:49;;;;;;;25.35;15.40;;;16.10;99.90;;;;;;5069517;28;20154;-53
2021/05/11 12:54:42;;;;;;;22.33;14.35;;;16.00;99.90;;;;;;5065756;28;20183;-56
2021/05/11 12:57:16;;;;;;;27.02;16.50;;;16.10;99.90;;;;;;5070414;28;20040;-56
2021/05/11 13:00:32;;;;;;;22.10;15.02;;;16.10;99.90;;;;;;5070709;28;20381;-53
2021/05/11 13:02:50;;;;;;;23.92;15.82;;;16.30;99.90;;;;;;5065474;28;20046;-54
2021/05/11 13:26:44;;;;;;;22.10;15.07;;;16.00;99.90;;;;;;5070251;28;20039;-54
2021/05/11 13:29:22;;;;;;;20.50;14.75;;;15.90;99.90;;;;;;5067118;28;20031;-56
2021/05/11 13:32:00;;;;;;;24.27;16.10;;;15.80;99.90;;;;;;5063681;28;20506;-54
2021/05/11 13:34:26;;;;;;;23.98;15.50;;;15.90;99.90;;;;;;5062478;28;20116;-56
2021/05/11 13:36:52;;;;;;;29.50;17.40;;;15.90;99.90;;;;;;5070204;28;20157;-54
2021/05/11 13:39:17;;;;;;;29.88;18.70;;;15.90;99.90;;;;;;5072976;28;20035;-54
2021/05/11 13:41:44;;;;;;;25.58;18.42;;;15.90;99.90;;;;;;5071883;28;20028;-54
2021/05/11 13:44:10;;;;;;;33.85;19.13;;;15.80;99.90;;;;;;5072569;28;20016;-55
2021/05/11 13:46:36;;;;;;;26.17;17.55;;;15.80;99.90;;;;;;5073144;28;20031;-53
2021/05/11 13:49:02;;;;;;;32.05;18.85;;;15.90;99.90;;;;;;5102444;28;20101;-54
2021/05/11 13:51:28;;;;;;;31.88;18.50;;;16.00;99.90;;;;;;5072806;28;20371;-54
2021/05/11 13:53:58;;;;;;;27.13;17.98;;;15.90;99.90;;;;;;5068452;28;20036;-53
2021/05/11 13:56:40;;;;;;;29.52;18.05;;;15.80;99.90;;;;;;5070998;28;20048;-54
2021/05/11 14:04:35;;;;;;;31.20;18.45;;;15.70;99.90;;;;;;5070876;28;20067;-54
2021/05/11 14:07:03;;;;;;;25.13;17.50;;;15.70;99.90;;;;;;5071088;28;20473;-54
2021/05/11 14:09:28;;;;;;;24.48;17.17;;;15.80;99.90;;;;;;5073817;28;20021;-56
2021/05/11 14:11:54;;;;;;;24.10;16.65;;;15.80;99.90;;;;;;5072568;28;20035;-55
2021/05/11 14:14:20;;;;;;;20.95;15.60;;;15.90;99.90;;;;;;5069960;28;20035;-56
2021/05/11 14:16:46;;;;;;;25.88;14.93;;;15.80;99.90;;;;;;5070367;28;20017;-56
2021/05/11 14:19:13;;;;;;;20.67;14.52;;;15.80;99.90;;;;;;5072524;28;20126;-56
2021/05/11 14:21:39;;;;;;;26.25;16.75;;;15.70;99.90;;;;;;5074404;28;20029;-55
2021/05/11 14:24:05;;;;;;;22.42;16.27;;;15.70;99.90;;;;;;5070104;28;20028;-57
2021/05/11 14:26:31;;;;;;;28.60;16.88;;;15.60;99.90;;;;;;5072918;28;20407;-56
2021/05/11 14:28:57;;;;;;;21.55;15.60;;;15.60;99.90;;;;;;5077315;28;20193;-56
2021/05/11 14:31:26;;;;;;;24.98;15.70;;;15.60;99.90;;;;;;5071426;28;20111;-55
2021/05/11 14:33:53;;;;;;;25.55;16.92;;;15.70;99.90;;;;;;5065721;28;20017;-56
2021/05/11 14:36:19;;;;;;;20.98;14.18;;;15.70;99.90;;;;;;5073744;28;20123;-56
2021/05/11 14:38:44;;;;;;;25.60;15.43;;;15.70;99.90;;;;;;5073820;28;20146;-56
2021/05/11 14:41:10;;;;;;;27.85;16.02;;;15.70;99.90;;;;;;5071529;28;20115;-56
2021/05/11 14:43:38;;;;;;;30.40;17.05;;;15.70;99.90;;;;;;5074015;28;20493;-55
2021/05/11 14:46:05;;;;;;;29.98;18.42;;;15.70;99.90;;;;;;5074199;28;20028;-55
2021/05/11 14:48:31;;;;;;;27.52;17.40;;;15.60;99.90;;;;;;5070591;28;20033;-57
2021/05/11 14:50:58;;;;;;;30.70;17.70;;;15.60;99.90;;;;;;5070602;28;20032;-55
2021/05/11 14:53:24;;;;;;;30.00;15.82;;;15.60;99.90;;;;;;5074581;28;20029;-54
2021/05/11 14:55:50;;;;;;;26.13;15.90;;;15.70;99.90;;;;;;5070320;28;20039;-54
2021/05/11 14:58:16;;;;;;;26.65;15.35;;;15.80;99.90;;;;;;5072868;28;20735;-53
2021/05/11 15:00:41;;;;;;;32.22;17.45;;;15.90;99.90;;;;;;5071223;28;20024;-53
2021/05/11 15:03:11;;;;;;;30.95;16.30;;;15.90;99.90;;;;;;5066120;28;20487;-56
2021/05/11 15:05:37;;;;;;;30.70;15.48;;;16.00;99.90;;;;;;5069047;28;20031;-54
2021/05/11 15:08:02;;;;;;;24.70;16.23;;;15.90;99.90;;;;;;5073810;28;20559;-54
2021/05/11 15:10:28;;;;;;;27.42;15.65;;;15.90;99.90;;;;;;5073469;28;20020;-54
2021/05/11 15:12:53;;;;;;;29.13;14.70;;;15.90;99.90;;;;;;5070684;28;20513;-55
2021/05/11 15:15:20;;;;;;;26.73;13.07;;;15.90;99.90;;;;;;5071828;28;20038;-56
2021/05/11 15:20:14;;;;;;;21.90;11.50;;;15.70;99.90;;;;;;5071298;28;20071;-56
2021/05/11 15:22:40;;;;;;;24.27;11.23;;;15.70;99.90;;;;;;5068363;28;20425;-57
2021/05/11 15:25:06;;;;;;;16.73;10.10;;;15.70;99.90;;;;;;5069758;28;20024;-56
2021/05/11 15:27:34;;;;;;;18.88;9.40;;;15.70;99.90;;;;;;5070258;28;20024;-57
2021/05/11 15:30:00;;;;;;;19.17;11.25;;;15.60;99.90;;;;;;5068462;28;20077;-57
2021/05/11 15:32:56;;;;;;;19.55;10.02;;;15.60;99.90;;;;;;5069022;28;20032;-55
2021/05/11 15:35:29;;;;;;;16.38;9.57;;;15.60;99.90;;;;;;5070697;28;20044;-56
2021/05/11 15:37:59;;;;;;;14.55;9.27;;;15.60;99.90;;;;;;5067307;28;20546;-57
2021/05/11 15:40:33;;;;;;;16.73;9.70;;;15.60;99.90;;;;;;5067158;28;20549;-55
2021/05/11 15:42:59;;;;;;;19.15;9.73;;;15.60;99.90;;;;;;5067090;28;20105;-57
2021/05/11 15:45:25;;;;;;;19.92;10.10;;;15.60;99.90;;;;;;5067634;28;20052;-57
2021/05/11 15:47:55;;;;;;;13.75;9.88;;;15.60;99.90;;;;;;5069375;28;20037;-56
2021/05/11 15:50:28;;;;;;;18.63;10.55;;;15.60;99.90;;;;;;5065282;28;20024;-56
2021/05/11 15:53:02;;;;;;;18.83;10.50;;;15.60;99.90;;;;;;5070512;28;20506;-57
2021/05/11 15:55:29;;;;;;;15.80;8.75;;;15.60;99.90;;;;;;5064202;28;20130;-54
2021/05/11 15:57:55;;;;;;;14.32;8.95;;;15.70;99.90;;;;;;5069261;28;20028;-57
2021/05/11 16:00:21;;;;;;;15.98;11.00;;;15.60;99.90;;;;;;5069897;28;20047;-55
2021/05/11 16:02:47;;;;;;;22.10;10.55;;;15.60;99.90;;;;;;5070463;28;20129;-54
2021/05/11 16:05:13;;;;;;;18.88;12.43;;;15.60;99.90;;;;;;5066632;28;20478;-56
2021/05/11 16:07:39;;;;;;;22.90;11.63;;;15.60;99.90;;;;;;5066961;28;20047;-56
2021/05/11 16:10:06;;;;;;;20.33;11.38;;;15.50;99.90;;;;;;5066435;28;20028;-56
2021/05/11 16:12:32;;;;;;;26.13;12.45;;;15.50;99.90;;;;;;5068576;28;20390;-57
2021/05/11 16:15:00;;;;;;;22.05;12.10;;;15.50;99.90;;;;;;5067457;28;20028;-57
2021/05/11 16:17:26;;;;;;;23.27;13.57;;;15.50;99.90;;;;;;5066025;28;20090;-55
2021/05/11 16:19:52;;;;;;;18.02;13.55;;;15.50;99.90;;;;;;5069304;28;20024;-55
2021/05/11 16:22:17;;;;;;;21.15;13.80;;;15.40;99.90;;;;;;5063285;28;20033;-54
2021/05/11 16:24:43;;;;;;;24.67;14.32;;;15.40;99.90;;;;;;5066163;28;20108;-56
2021/05/11 16:27:08;;;;;;;24.17;15.65;;;15.30;99.90;;;;;;5070810;28;20029;-54
2021/05/11 16:29:34;;;;;;;21.15;15.35;;;15.30;99.90;;;;;;5100633;28;20052;-55
2021/05/11 16:32:00;;;;;;;26.77;14.80;;;15.30;99.90;;;;;;5065954;28;20025;-54
2021/05/11 16:34:26;;;;;;;28.73;15.90;;;15.30;99.90;;;;;;5060837;28;20055;-55
2021/05/11 16:36:53;;;;;;;22.77;16.13;;;15.30;99.90;;;;;;5066562;28;20028;-54
2021/05/11 16:39:18;;;;;;;26.52;16.33;;;15.20;99.90;;;;;;5067548;28;20028;-56
2021/05/11 16:41:46;;;;;;;25.63;15.88;;;15.20;99.90;;;;;;5069108;28;20540;-54
2021/05/11 16:44:12;;;;;;;32.33;17.52;;;15.20;99.90;;;;;;5066940;28;20070;-56
2021/05/11 16:46:38;;;;;;;20.45;14.77;;;15.20;99.90;;;;;;5064924;28;20032;-54